createdAt,value
2022-12-25T00:00:58.474Z,3.60
2022-12-25T00:03:49.276Z,3.55
2022-12-25T00:06:19.366Z,3.47
2022-12-25T00:08:53.476Z,3.38
2022-12-25T00:11:20.639Z,3.26
2022-12-25T00:13:48.491Z,3.23
2022-12-25T00:16:20.997Z,3.21
2022-12-25T00:18:49.474Z,3.20
2022-12-25T00:21:17.158Z,3.22
2022-12-25T00:23:44.137Z,3.23
2022-12-25T00:26:14.776Z,3.21
2022-12-25T00:28:41.519Z,3.19
2022-12-25T00:31:15.236Z,3.15
2022-12-25T00:33:45.972Z,3.13
2022-12-25T00:36:15.439Z,3.12
2022-12-25T00:38:43.268Z,3.10
2022-12-25T00:41:12.704Z,3.11
2022-12-25T00:43:41.559Z,3.12
2022-12-25T00:46:10.980Z,3.08
2022-12-25T00:48:38.635Z,2.99
2022-12-25T00:51:08.210Z,2.95
2022-12-25T00:53:34.821Z,2.93
2022-12-25T00:56:04.294Z,2.90
2022-12-25T00:58:32.682Z,2.85
2022-12-25T01:01:02.245Z,2.81
2022-12-25T01:03:29.227Z,2.73
2022-12-25T01:06:01.708Z,2.68
2022-12-25T01:08:31.364Z,2.60
2022-12-25T01:11:14.773Z,2.50
2022-12-25T01:13:42.265Z,2.42
2022-12-25T01:16:11.045Z,2.33
2022-12-25T01:18:38.567Z,2.28
2022-12-25T01:21:15.483Z,2.24
2022-12-25T01:23:43.317Z,2.18
2022-12-25T01:26:13.209Z,2.09
2022-12-25T01:28:40.747Z,2.04
2022-12-25T01:31:12.442Z,2.02
2022-12-25T01:33:40.442Z,2.02
2022-12-25T01:36:20.207Z,2.01
2022-12-25T01:38:49.044Z,2.00
2022-12-25T01:41:27.825Z,2.00
2022-12-25T01:44:27.391Z,2.01
2022-12-25T01:46:54.375Z,1.99
2022-12-25T01:52:53.934Z,2.04
2022-12-25T01:55:22.420Z,2.04
2022-12-25T01:57:54.154Z,2.01
2022-12-25T02:00:20.741Z,2.03
2022-12-25T02:02:48.532Z,2.04
2022-12-25T02:05:29.412Z,2.04
2022-12-25T02:08:00.190Z,2.05
2022-12-25T02:10:27.471Z,2.06
2022-12-25T02:12:54.407Z,2.04
2022-12-25T02:15:26.395Z,2.01
2022-12-25T02:18:11.563Z,1.97
2022-12-25T02:21:11.379Z,1.91
2022-12-25T02:24:02.645Z,1.89
2022-12-25T02:26:38.416Z,1.88
2022-12-25T02:29:25.121Z,1.86
2022-12-25T02:32:18.291Z,1.82
2022-12-25T02:34:57.900Z,1.81
2022-12-25T02:37:35.461Z,1.81
2022-12-25T02:40:28.926Z,1.82
2022-12-25T02:43:22.509Z,1.88
2022-12-25T02:46:27.455Z,1.90
2022-12-25T02:49:16.843Z,1.92
2022-12-25T02:52:12.956Z,1.95
2022-12-25T02:55:06.235Z,1.97
2022-12-25T02:57:57.719Z,1.97
2022-12-25T03:00:44.072Z,1.90
2022-12-25T03:03:36.107Z,1.90
2022-12-25T03:06:22.874Z,1.90
2022-12-25T03:09:22.297Z,1.92
2022-12-25T03:11:56.825Z,1.97
2022-12-25T03:14:42.293Z,2.03
2022-12-25T03:17:09.370Z,2.09
2022-12-25T03:19:56.219Z,2.13
2022-12-25T03:22:46.951Z,2.20
2022-12-25T03:25:33.771Z,2.27
2022-12-25T03:28:04.322Z,2.29
2022-12-25T03:31:13.838Z,2.30
2022-12-25T03:34:12.162Z,2.28
2022-12-25T03:37:16.549Z,2.36
2022-12-25T03:40:43.422Z,2.44
2022-12-25T03:43:44.091Z,2.43
2022-12-25T03:46:46.979Z,2.41
2022-12-25T03:50:10.658Z,2.35
2022-12-25T03:52:58.168Z,2.22
2022-12-25T03:55:47.280Z,2.22
2022-12-25T03:59:25.078Z,2.17
2022-12-25T04:02:10.320Z,2.10
2022-12-25T04:04:59.992Z,2.08
2022-12-25T04:07:45.333Z,2.06
2022-12-25T04:10:31.193Z,2.03
2022-12-25T04:13:16.649Z,2.01
2022-12-25T04:16:01.812Z,2.00
2022-12-25T04:18:47.657Z,1.98
2022-12-25T04:21:33.178Z,1.98
2022-12-25T04:24:18.979Z,1.98
2022-12-25T04:27:04.743Z,1.96
2022-12-25T04:29:51.012Z,1.95
2022-12-25T04:32:36.524Z,1.94
2022-12-25T04:35:22.421Z,1.93
2022-12-25T04:37:49.031Z,1.88
2022-12-25T04:40:17.496Z,1.84
2022-12-25T04:42:44.114Z,1.83
2022-12-25T04:45:13.789Z,1.80
2022-12-25T04:47:40.561Z,1.75
2022-12-25T04:50:07.646Z,1.74
2022-12-25T04:52:36.740Z,1.71
2022-12-25T04:55:09.422Z,1.67
2022-12-25T04:57:36.886Z,1.63
2022-12-25T05:00:05.349Z,1.62
2022-12-25T05:02:32.502Z,1.59
2022-12-25T05:04:59.424Z,1.53
2022-12-25T05:07:26.257Z,1.48
2022-12-25T05:09:53.474Z,1.40
2022-12-25T05:12:20.414Z,1.33
2022-12-25T05:14:46.982Z,1.25
2022-12-25T05:17:13.661Z,1.09
2022-12-25T05:19:40.359Z,0.96
2022-12-25T05:22:07.049Z,0.90
2022-12-25T05:24:33.638Z,0.89
2022-12-25T05:27:00.444Z,0.88
2022-12-25T05:29:28.558Z,0.86
2022-12-25T05:31:55.132Z,0.84
2022-12-25T05:34:22.048Z,0.82
2022-12-25T05:36:50.156Z,0.81
2022-12-25T05:39:16.814Z,0.80
2022-12-25T05:41:43.455Z,0.82
2022-12-25T05:44:10.347Z,0.82
2022-12-25T05:46:37.010Z,0.81
2022-12-25T05:49:05.100Z,0.75
2022-12-25T05:51:32.366Z,0.63
2022-12-25T05:53:59.198Z,0.59
2022-12-25T05:56:28.313Z,0.55
2022-12-25T05:58:55.251Z,0.57
2022-12-25T06:01:24.313Z,0.58
2022-12-25T06:03:52.394Z,0.58
2022-12-25T06:06:20.350Z,0.56
2022-12-25T06:08:49.073Z,0.54
2022-12-25T06:11:16.516Z,0.52
2022-12-25T06:16:26.843Z,0.64
2022-12-25T06:18:56.292Z,0.77
2022-12-25T06:21:23.164Z,0.94
2022-12-25T06:23:50.789Z,1.10
2022-12-25T06:26:20.312Z,1.32
2022-12-25T06:28:48.030Z,1.61
2022-12-25T06:31:19.169Z,1.95
2022-12-25T06:33:47.463Z,2.31
2022-12-25T06:36:22.666Z,2.78
2022-12-25T06:38:50.566Z,3.68
2022-12-25T06:45:26.628Z,6.31
2022-12-25T06:47:53.370Z,7.18
2022-12-25T07:38:54.019Z,12.62
2022-12-25T07:41:25.024Z,12.40
2022-12-25T07:43:57.501Z,12.29
2022-12-25T09:23:02.027Z,12.00
2022-12-25T09:25:29.609Z,11.99
2022-12-25T09:36:10.964Z,12.12
2022-12-25T09:55:28.083Z,12.49
2022-12-25T10:01:12.718Z,12.58
2022-12-25T10:08:29.390Z,12.68
2022-12-25T10:11:18.347Z,12.72
2022-12-25T10:13:58.635Z,12.79
2022-12-25T10:17:05.197Z,12.78
2022-12-25T10:20:26.438Z,12.84
2022-12-25T10:23:25.101Z,12.84
2022-12-25T10:29:19.179Z,12.88
2022-12-25T10:31:49.625Z,12.91
2022-12-25T10:34:17.759Z,12.94
2022-12-25T10:40:00.358Z,12.98
2022-12-25T10:51:58.408Z,13.16
2022-12-25T10:54:29.873Z,13.21
2022-12-25T10:57:09.701Z,13.24
2022-12-25T11:02:41.059Z,13.33
2022-12-25T11:05:25.548Z,13.35
2022-12-25T11:48:49.720Z,13.30
2022-12-25T11:51:19.453Z,13.29
2022-12-25T11:53:49.538Z,13.29
2022-12-25T11:56:17.975Z,13.25
2022-12-25T11:58:55.055Z,13.24
2022-12-25T12:15:40.127Z,13.25
2022-12-25T12:18:28.790Z,13.23
2022-12-25T12:21:05.178Z,13.24
2022-12-25T12:23:49.088Z,13.24
2022-12-25T12:26:22.120Z,13.22
2022-12-25T12:28:52.787Z,13.13
2022-12-25T12:31:22.089Z,13.19
2022-12-25T12:33:59.199Z,13.22
2022-12-25T13:34:30.979Z,12.62
2022-12-25T13:37:06.362Z,12.54
2022-12-25T13:39:36.587Z,12.48
2022-12-25T13:42:06.541Z,12.45
2022-12-25T14:22:24.506Z,11.60
2022-12-25T14:24:52.016Z,11.52
2022-12-25T14:27:25.067Z,11.46
2022-12-25T14:29:55.619Z,11.37
2022-12-25T14:32:25.481Z,11.29
2022-12-25T14:34:59.647Z,11.23
2022-12-25T14:37:30.232Z,11.17
2022-12-25T14:40:04.394Z,11.10
2022-12-25T14:42:34.471Z,11.02
2022-12-25T14:45:24.261Z,10.94
2022-12-25T14:47:53.219Z,10.85
2022-12-25T14:50:27.540Z,10.76
2022-12-25T14:52:55.119Z,10.66
2022-12-25T14:55:28.142Z,10.60
2022-12-25T14:58:03.877Z,10.52
2022-12-25T15:00:38.222Z,10.45
2022-12-25T15:03:16.873Z,10.37
2022-12-25T15:05:43.874Z,10.27
2022-12-25T15:08:10.516Z,10.18
2022-12-25T15:13:26.264Z,10.00
2022-12-25T15:16:00.920Z,9.73
2022-12-25T15:18:40.825Z,9.62
2022-12-25T15:21:15.757Z,9.52
2022-12-25T15:23:42.501Z,9.46
2022-12-25T15:26:13.049Z,9.36
2022-12-25T15:28:40.129Z,9.25
2022-12-25T15:31:25.632Z,9.13
2022-12-25T15:33:53.742Z,9.11
2022-12-25T15:36:20.891Z,9.05
2022-12-25T15:38:47.816Z,8.97
2022-12-25T15:41:56.692Z,8.64
2022-12-25T15:44:24.197Z,8.51
2022-12-25T15:46:51.541Z,8.30
2022-12-25T15:49:18.627Z,8.13
2022-12-25T15:51:45.605Z,8.00
2022-12-25T15:54:12.730Z,7.85
2022-12-25T15:56:51.105Z,7.74
2022-12-25T15:59:19.337Z,7.64
2022-12-25T16:01:53.593Z,7.54
2022-12-25T16:04:21.578Z,7.44
2022-12-25T16:06:49.437Z,7.31
2022-12-25T16:09:17.239Z,7.21
2022-12-25T16:11:43.933Z,7.05
2022-12-25T16:14:10.705Z,6.89
2022-12-25T16:16:37.658Z,6.84
2022-12-25T16:19:04.727Z,6.77
2022-12-25T16:21:42.008Z,6.66
2022-12-25T16:24:08.886Z,6.53
2022-12-25T16:26:40.024Z,6.49
2022-12-25T16:29:07.878Z,6.49
2022-12-25T16:31:59.889Z,6.49
2022-12-25T16:34:26.631Z,6.46
2022-12-25T16:36:53.480Z,6.46
2022-12-25T16:39:20.048Z,6.41
2022-12-25T16:41:46.771Z,6.29
2022-12-25T16:44:14.174Z,6.22
2022-12-25T16:46:40.961Z,6.06
2022-12-25T16:49:08.154Z,5.98
2022-12-25T16:51:35.158Z,5.92
2022-12-25T16:54:01.897Z,5.87
2022-12-25T16:56:30.122Z,5.83
2022-12-25T16:58:58.570Z,5.81
2022-12-25T17:01:25.489Z,5.76
2022-12-25T17:03:52.417Z,5.72
2022-12-25T17:06:26.069Z,5.63
2022-12-25T17:08:56.487Z,5.49
2022-12-25T17:11:26.722Z,5.32
2022-12-25T17:13:53.810Z,5.06
2022-12-25T17:16:24.809Z,5.10
2022-12-25T17:19:12.359Z,5.13
2022-12-25T17:21:38.930Z,5.09
2022-12-25T17:24:06.041Z,5.03
2022-12-25T17:26:33.073Z,5.04
2022-12-25T17:29:00.172Z,5.06
2022-12-25T17:31:27.785Z,5.05
2022-12-25T17:33:55.228Z,5.06
2022-12-25T17:36:22.943Z,5.06
2022-12-25T17:38:49.622Z,5.10
2022-12-25T17:41:18.018Z,5.15
2022-12-25T17:43:46.115Z,5.17
2022-12-25T17:46:22.382Z,5.16
2022-12-25T17:48:50.255Z,5.15
2022-12-25T17:51:20.773Z,5.14
2022-12-25T17:53:49.824Z,5.14
2022-12-25T17:56:17.438Z,5.12
2022-12-25T17:58:48.713Z,5.00
2022-12-25T18:01:16.303Z,4.91
2022-12-25T18:03:44.425Z,4.83
2022-12-25T18:06:14.086Z,4.77
2022-12-25T18:08:42.067Z,4.63
2022-12-25T18:11:17.131Z,4.54
2022-12-25T18:13:48.062Z,4.49
2022-12-25T18:16:15.611Z,4.46
2022-12-25T18:18:47.984Z,4.39
2022-12-25T18:21:19.475Z,4.33
2022-12-25T18:23:46.091Z,4.21
2022-12-25T18:26:13.183Z,4.13
2022-12-25T18:28:41.831Z,4.08
2022-12-25T18:31:10.677Z,4.04
2022-12-25T18:33:37.350Z,4.03
2022-12-25T18:36:05.702Z,4.07
2022-12-25T18:38:32.478Z,4.12
2022-12-25T18:40:59.302Z,4.14
2022-12-25T18:43:52.779Z,4.15
2022-12-25T18:46:13.543Z,4.17
2022-12-25T18:48:40.556Z,4.17
2022-12-25T18:51:12.066Z,4.14
2022-12-25T18:53:41.490Z,4.08
2022-12-25T18:56:15.027Z,3.64
2022-12-25T18:58:42.751Z,3.32
2022-12-25T19:01:24.816Z,3.15
2022-12-25T19:03:53.867Z,3.07
2022-12-25T19:06:28.581Z,3.11
2022-12-25T19:08:58.948Z,3.14
2022-12-25T19:11:26.703Z,3.20
2022-12-25T19:13:53.460Z,3.32
2022-12-25T19:16:21.188Z,3.34
2022-12-25T19:18:48.127Z,3.35
2022-12-25T19:21:16.282Z,3.33
2022-12-25T19:23:43.890Z,3.33
2022-12-25T19:26:12.711Z,3.34
2022-12-25T19:28:39.621Z,3.32
2022-12-25T19:31:08.337Z,3.31
2022-12-25T19:33:40.159Z,3.30
2022-12-25T19:36:16.210Z,3.31
2022-12-25T19:38:46.449Z,3.32
2022-12-25T19:41:16.041Z,3.31
2022-12-25T19:43:47.594Z,3.34
2022-12-25T19:46:24.426Z,3.34
2022-12-25T19:48:52.464Z,3.36
2022-12-25T19:51:26.429Z,3.35
2022-12-25T19:53:58.044Z,3.31
2022-12-25T19:56:26.843Z,3.19
2022-12-25T19:58:54.722Z,3.12
2022-12-25T20:01:23.850Z,3.07
2022-12-25T20:28:02.708Z,2.55
2022-12-25T20:30:29.826Z,2.60
2022-12-25T20:36:37.281Z,2.59
2022-12-25T20:39:08.868Z,2.55
2022-12-25T20:46:05.223Z,2.48
2022-12-25T20:48:56.712Z,2.35
2022-12-25T20:51:26.197Z,2.28
2022-12-25T20:53:55.097Z,2.33
2022-12-25T20:56:27.741Z,2.40
2022-12-25T20:58:59.032Z,2.45
2022-12-25T21:01:28.678Z,2.46
2022-12-25T21:03:57.254Z,2.53
2022-12-25T21:29:59.527Z,2.72
2022-12-25T21:33:01.959Z,2.72
2022-12-25T22:19:35.785Z,2.61
2022-12-25T22:22:04.045Z,2.61
2022-12-25T22:24:32.932Z,2.46
2022-12-25T22:27:00.323Z,2.41
